sensor_id;sensor_type;location;lat;lon;timestamp;temperature;humidity
736;DHT22;352;48.626;9.238;2023-03-02T00:01:41;3.50;99.90
736;DHT22;352;48.626;9.238;2023-03-02T00:04:13;3.20;99.90
736;DHT22;352;48.626;9.238;2023-03-02T00:06:40;3.30;99.90
736;DHT22;352;48.626;9.238;2023-03-02T00:11:36;3.20;99.90
736;DHT22;352;48.626;9.238;2023-03-02T00:16:31;3.00;99.90
736;DHT22;352;48.626;9.238;2023-03-02T00:18:58;3.10;99.90
736;DHT22;352;48.626;9.238;2023-03-02T00:21:25;3.30;99.90
736;DHT22;352;48.626;9.238;2023-03-02T00:23:52;3.10;99.90
736;DHT22;352;48.626;9.238;2023-03-02T00:26:19;3.30;99.90
736;DHT22;352;48.626;9.238;2023-03-02T00:31:13;3.30;99.90
736;DHT22;352;48.626;9.238;2023-03-02T00:33:41;3.10;99.90
736;DHT22;352;48.626;9.238;2023-03-02T00:36:14;3.50;99.90
736;DHT22;352;48.626;9.238;2023-03-02T00:38:41;2.90;99.90
736;DHT22;352;48.626;9.238;2023-03-02T00:41:09;3.00;99.90
736;DHT22;352;48.626;9.238;2023-03-02T00:46:08;2.30;99.90
736;DHT22;352;48.626;9.238;2023-03-02T00:51:04;3.20;99.90
736;DHT22;352;48.626;9.238;2023-03-02T00:53:31;3.00;99.90
736;DHT22;352;48.626;9.238;2023-03-02T01:03:21;2.80;99.90
736;DHT22;352;48.626;9.238;2023-03-02T01:05:48;3.10;99.90
736;DHT22;352;48.626;9.238;2023-03-02T01:08:21;2.90;99.90
736;DHT22;352;48.626;9.238;2023-03-02T01:20:36;3.00;99.90
736;DHT22;352;48.626;9.238;2023-03-02T01:25:31;2.00;99.90
736;DHT22;352;48.626;9.238;2023-03-02T01:27:57;2.90;99.90
736;DHT22;352;48.626;9.238;2023-03-02T01:37:45;2.50;99.90
736;DHT22;352;48.626;9.238;2023-03-02T01:40:12;2.50;99.90
736;DHT22;352;48.626;9.238;2023-03-02T01:42:49;1.40;99.90
736;DHT22;352;48.626;9.238;2023-03-02T01:48:26;2.40;99.90
736;DHT22;352;48.626;9.238;2023-03-02T01:50:55;2.50;99.90
736;DHT22;352;48.626;9.238;2023-03-02T01:53:25;2.40;99.90
736;DHT22;352;48.626;9.238;2023-03-02T01:58:21;2.60;99.90
736;DHT22;352;48.626;9.238;2023-03-02T02:03:19;2.50;99.90
736;DHT22;352;48.626;9.238;2023-03-02T02:05:57;2.50;99.90
736;DHT22;352;48.626;9.238;2023-03-02T02:08:26;2.00;99.90
736;DHT22;352;48.626;9.238;2023-03-02T02:10:53;2.40;99.90
736;DHT22;352;48.626;9.238;2023-03-02T02:13:22;2.50;99.90
736;DHT22;352;48.626;9.238;2023-03-02T02:15:48;2.70;99.90
736;DHT22;352;48.626;9.238;2023-03-02T02:18:15;2.40;99.90
736;DHT22;352;48.626;9.238;2023-03-02T02:20:44;2.30;99.90
736;DHT22;352;48.626;9.238;2023-03-02T02:23:25;2.40;99.90
736;DHT22;352;48.626;9.238;2023-03-02T02:26:05;2.50;99.90
736;DHT22;352;48.626;9.238;2023-03-02T02:28:36;2.50;99.90
736;DHT22;352;48.626;9.238;2023-03-02T02:31:07;2.20;99.90
736;DHT22;352;48.626;9.238;2023-03-02T02:33:35;2.20;99.90
736;DHT22;352;48.626;9.238;2023-03-02T02:36:06;2.20;99.90
736;DHT22;352;48.626;9.238;2023-03-02T02:38:34;2.20;99.90
736;DHT22;352;48.626;9.238;2023-03-02T02:41:05;2.30;99.90
736;DHT22;352;48.626;9.238;2023-03-02T02:43:33;2.30;99.90
736;DHT22;352;48.626;9.238;2023-03-02T02:48:29;2.20;99.90
736;DHT22;352;48.626;9.238;2023-03-02T02:50:57;1.80;99.90
736;DHT22;352;48.626;9.238;2023-03-02T02:53:28;2.10;99.90
736;DHT22;352;48.626;9.238;2023-03-02T02:55:57;2.10;99.90
736;DHT22;352;48.626;9.238;2023-03-02T02:58:29;2.10;99.90
736;DHT22;352;48.626;9.238;2023-03-02T03:00:56;2.10;99.90
736;DHT22;352;48.626;9.238;2023-03-02T03:03:25;2.00;99.90
736;DHT22;352;48.626;9.238;2023-03-02T03:05:56;2.00;99.90
736;DHT22;352;48.626;9.238;2023-03-02T03:08:54;1.80;99.90
736;DHT22;352;48.626;9.238;2023-03-02T03:11:23;2.20;99.90
736;DHT22;352;48.626;9.238;2023-03-02T03:13:56;1.80;99.90
736;DHT22;352;48.626;9.238;2023-03-02T03:16:26;1.70;99.90
736;DHT22;352;48.626;9.238;2023-03-02T03:18:55;2.00;99.90
736;DHT22;352;48.626;9.238;2023-03-02T03:21:22;1.80;99.90
736;DHT22;352;48.626;9.238;2023-03-02T03:23:49;1.50;99.90
736;DHT22;352;48.626;9.238;2023-03-02T03:26:16;2.00;99.90
736;DHT22;352;48.626;9.238;2023-03-02T03:31:11;1.80;99.90
736;DHT22;352;48.626;9.238;2023-03-02T03:33:38;1.80;99.90
736;DHT22;352;48.626;9.238;2023-03-02T03:36:05;1.70;99.90
736;DHT22;352;48.626;9.238;2023-03-02T03:38:32;1.50;99.90
736;DHT22;352;48.626;9.238;2023-03-02T03:43:26;1.40;99.90
736;DHT22;352;48.626;9.238;2023-03-02T03:45:53;1.80;99.90
736;DHT22;352;48.626;9.238;2023-03-02T03:48:21;1.80;99.90
736;DHT22;352;48.626;9.238;2023-03-02T03:50:47;1.70;99.90
736;DHT22;352;48.626;9.238;2023-03-02T03:53:14;1.60;99.90
736;DHT22;352;48.626;9.238;2023-03-02T03:55:41;1.40;99.90
736;DHT22;352;48.626;9.238;2023-03-02T04:00:35;1.80;99.90
736;DHT22;352;48.626;9.238;2023-03-02T04:03:02;1.90;99.90
736;DHT22;352;48.626;9.238;2023-03-02T04:05:30;1.80;99.90
736;DHT22;352;48.626;9.238;2023-03-02T04:07:57;1.90;99.90
736;DHT22;352;48.626;9.238;2023-03-02T04:12:56;1.90;99.90
736;DHT22;352;48.626;9.238;2023-03-02T04:15:23;2.10;99.90
736;DHT22;352;48.626;9.238;2023-03-02T04:17:50;1.90;99.90
736;DHT22;352;48.626;9.238;2023-03-02T04:20:18;1.50;99.90
736;DHT22;352;48.626;9.238;2023-03-02T04:22:48;1.70;99.90
736;DHT22;352;48.626;9.238;2023-03-02T04:25:17;1.90;99.90
736;DHT22;352;48.626;9.238;2023-03-02T04:30:12;2.00;99.90
736;DHT22;352;48.626;9.238;2023-03-02T04:32:39;2.00;99.90
736;DHT22;352;48.626;9.238;2023-03-02T04:35:08;2.10;99.90
736;DHT22;352;48.626;9.238;2023-03-02T04:40:04;1.80;99.90
736;DHT22;352;48.626;9.238;2023-03-02T04:44:58;2.10;99.90
736;DHT22;352;48.626;9.238;2023-03-02T04:47:25;2.10;99.90
736;DHT22;352;48.626;9.238;2023-03-02T04:49:52;2.00;99.90
736;DHT22;352;48.626;9.238;2023-03-02T04:52:21;1.70;99.90
736;DHT22;352;48.626;9.238;2023-03-02T04:54:48;2.10;99.90
736;DHT22;352;48.626;9.238;2023-03-02T04:57:16;2.20;99.90
736;DHT22;352;48.626;9.238;2023-03-02T04:59:43;2.70;99.90
736;DHT22;352;48.626;9.238;2023-03-02T05:02:10;2.20;99.90
736;DHT22;352;48.626;9.238;2023-03-02T05:04:36;2.40;99.90
736;DHT22;352;48.626;9.238;2023-03-02T05:07:04;2.30;99.90
736;DHT22;352;48.626;9.238;2023-03-02T05:09:31;2.60;99.90
736;DHT22;352;48.626;9.238;2023-03-02T05:11:59;2.80;99.90
736;DHT22;352;48.626;9.238;2023-03-02T05:14:28;2.50;99.90
736;DHT22;352;48.626;9.238;2023-03-02T05:16:55;2.40;99.90
736;DHT22;352;48.626;9.238;2023-03-02T05:19:22;2.30;99.90
736;DHT22;352;48.626;9.238;2023-03-02T05:21:49;2.70;99.90
736;DHT22;352;48.626;9.238;2023-03-02T05:24:15;2.90;99.90
736;DHT22;352;48.626;9.238;2023-03-02T05:29:09;2.60;99.90
736;DHT22;352;48.626;9.238;2023-03-02T05:31:39;3.30;99.90
736;DHT22;352;48.626;9.238;2023-03-02T05:34:08;2.80;99.90
736;DHT22;352;48.626;9.238;2023-03-02T05:36:35;2.60;99.90
736;DHT22;352;48.626;9.238;2023-03-02T05:41:30;3.00;99.90
736;DHT22;352;48.626;9.238;2023-03-02T05:43:57;2.70;99.90
736;DHT22;352;48.626;9.238;2023-03-02T05:46:24;3.10;99.90
736;DHT22;352;48.626;9.238;2023-03-02T05:48:52;3.00;99.90
736;DHT22;352;48.626;9.238;2023-03-02T05:53:46;3.20;99.90
736;DHT22;352;48.626;9.238;2023-03-02T05:58:40;3.00;99.90
736;DHT22;352;48.626;9.238;2023-03-02T06:01:08;3.50;99.90
736;DHT22;352;48.626;9.238;2023-03-02T06:06:04;3.10;99.90
736;DHT22;352;48.626;9.238;2023-03-02T06:08:31;2.60;99.90
736;DHT22;352;48.626;9.238;2023-03-02T06:13:24;3.20;99.90
736;DHT22;352;48.626;9.238;2023-03-02T06:18:18;3.20;99.90
736;DHT22;352;48.626;9.238;2023-03-02T06:23:13;3.20;99.90
736;DHT22;352;48.626;9.238;2023-03-02T06:25:41;3.10;99.90
736;DHT22;352;48.626;9.238;2023-03-02T06:28:13;3.20;99.90
736;DHT22;352;48.626;9.238;2023-03-02T06:33:07;3.40;99.90
736;DHT22;352;48.626;9.238;2023-03-02T06:35:34;3.20;99.90
736;DHT22;352;48.626;9.238;2023-03-02T06:38:00;3.40;99.90
736;DHT22;352;48.626;9.238;2023-03-02T06:40:28;3.20;99.90
736;DHT22;352;48.626;9.238;2023-03-02T06:42:55;3.50;99.90
736;DHT22;352;48.626;9.238;2023-03-02T06:45:24;3.40;99.90
736;DHT22;352;48.626;9.238;2023-03-02T06:47:51;3.50;99.90
736;DHT22;352;48.626;9.238;2023-03-02T06:50:18;3.20;99.90
736;DHT22;352;48.626;9.238;2023-03-02T06:52:45;3.30;99.90
736;DHT22;352;48.626;9.238;2023-03-02T06:55:14;3.60;99.90
736;DHT22;352;48.626;9.238;2023-03-02T06:57:42;3.60;99.90
736;DHT22;352;48.626;9.238;2023-03-02T07:00:10;4.10;99.90
736;DHT22;352;48.626;9.238;2023-03-02T07:02:41;4.30;99.90
736;DHT22;352;48.626;9.238;2023-03-02T07:05:08;3.70;99.90
736;DHT22;352;48.626;9.238;2023-03-02T07:07:35;3.90;99.90
736;DHT22;352;48.626;9.238;2023-03-02T07:10:02;4.40;99.90
736;DHT22;352;48.626;9.238;2023-03-02T07:12:29;4.00;99.90
736;DHT22;352;48.626;9.238;2023-03-02T07:14:57;4.00;99.90
736;DHT22;352;48.626;9.238;2023-03-02T07:17:24;4.10;99.90
736;DHT22;352;48.626;9.238;2023-03-02T07:19:50;3.70;99.90
736;DHT22;352;48.626;9.238;2023-03-02T07:22:17;3.10;99.90
736;DHT22;352;48.626;9.238;2023-03-02T07:27:11;4.00;99.90
736;DHT22;352;48.626;9.238;2023-03-02T07:29:38;4.00;99.90
736;DHT22;352;48.626;9.238;2023-03-02T07:32:06;4.00;99.90
736;DHT22;352;48.626;9.238;2023-03-02T07:34:33;4.60;99.90
736;DHT22;352;48.626;9.238;2023-03-02T07:39:27;4.10;99.90
736;DHT22;352;48.626;9.238;2023-03-02T07:41:57;3.80;99.90
736;DHT22;352;48.626;9.238;2023-03-02T07:44:24;4.80;99.90
736;DHT22;352;48.626;9.238;2023-03-02T07:49:19;4.50;99.90
736;DHT22;352;48.626;9.238;2023-03-02T07:51:46;5.10;99.90
736;DHT22;352;48.626;9.238;2023-03-02T07:56:40;4.70;99.90
736;DHT22;352;48.626;9.238;2023-03-02T07:59:06;4.80;99.90
736;DHT22;352;48.626;9.238;2023-03-02T08:01:33;4.60;99.90
736;DHT22;352;48.626;9.238;2023-03-02T08:04:00;4.50;99.90
736;DHT22;352;48.626;9.238;2023-03-02T08:06:28;4.60;99.90
736;DHT22;352;48.626;9.238;2023-03-02T08:11:22;4.80;99.90
736;DHT22;352;48.626;9.238;2023-03-02T08:16:16;4.80;99.90
736;DHT22;352;48.626;9.238;2023-03-02T08:21:11;4.80;99.90
736;DHT22;352;48.626;9.238;2023-03-02T08:23:40;5.50;99.90
736;DHT22;352;48.626;9.238;2023-03-02T08:28:35;4.90;99.90
736;DHT22;352;48.626;9.238;2023-03-02T08:31:02;4.90;99.90
736;DHT22;352;48.626;9.238;2023-03-02T08:33:29;5.10;99.90
736;DHT22;352;48.626;9.238;2023-03-02T08:35:57;5.10;99.90
736;DHT22;352;48.626;9.238;2023-03-02T08:38:25;5.20;99.90
736;DHT22;352;48.626;9.238;2023-03-02T08:40:53;5.40;99.90
736;DHT22;352;48.626;9.238;2023-03-02T08:43:21;5.30;99.90
736;DHT22;352;48.626;9.238;2023-03-02T08:45:50;5.50;99.90
736;DHT22;352;48.626;9.238;2023-03-02T08:48:17;5.50;99.90
736;DHT22;352;48.626;9.238;2023-03-02T08:53:11;5.90;99.90
736;DHT22;352;48.626;9.238;2023-03-02T08:58:06;5.90;99.90
736;DHT22;352;48.626;9.238;2023-03-02T09:00:34;6.00;99.90
736;DHT22;352;48.626;9.238;2023-03-02T09:05:27;6.20;99.90
736;DHT22;352;48.626;9.238;2023-03-02T09:15:17;6.30;99.90
736;DHT22;352;48.626;9.238;2023-03-02T09:20:11;6.50;99.90
736;DHT22;352;48.626;9.238;2023-03-02T09:22:38;6.60;99.90
736;DHT22;352;48.626;9.238;2023-03-02T09:27:34;6.80;99.90
736;DHT22;352;48.626;9.238;2023-03-02T09:32:29;7.30;99.80
736;DHT22;352;48.626;9.238;2023-03-02T09:39:50;7.30;99.90
736;DHT22;352;48.626;9.238;2023-03-02T09:42:38;7.20;99.90
736;DHT22;352;48.626;9.238;2023-03-02T09:45:32;6.60;99.90
736;DHT22;352;48.626;9.238;2023-03-02T09:48:11;7.40;99.90
736;DHT22;352;48.626;9.238;2023-03-02T09:50:46;8.00;99.50
736;DHT22;352;48.626;9.238;2023-03-02T09:53:33;7.90;98.60
736;DHT22;352;48.626;9.238;2023-03-02T09:58:30;8.10;98.30
736;DHT22;352;48.626;9.238;2023-03-02T10:01:03;8.20;98.20
736;DHT22;352;48.626;9.238;2023-03-02T10:03:40;8.50;99.90
736;DHT22;352;48.626;9.238;2023-03-02T10:06:11;8.90;97.50
736;DHT22;352;48.626;9.238;2023-03-02T10:11:13;9.00;99.30
736;DHT22;352;48.626;9.238;2023-03-02T10:13:45;9.10;96.40
736;DHT22;352;48.626;9.238;2023-03-02T10:16:23;9.30;96.70
736;DHT22;352;48.626;9.238;2023-03-02T10:19:02;9.30;99.90
736;DHT22;352;48.626;9.238;2023-03-02T10:21:35;9.60;95.60
736;DHT22;352;48.626;9.238;2023-03-02T10:24:10;9.90;99.90
736;DHT22;352;48.626;9.238;2023-03-02T10:26:40;9.70;95.10
736;DHT22;352;48.626;9.238;2023-03-02T10:29:25;10.20;99.90
736;DHT22;352;48.626;9.238;2023-03-02T10:31:58;10.10;94.60
736;DHT22;352;48.626;9.238;2023-03-02T10:34:29;10.10;94.40
736;DHT22;352;48.626;9.238;2023-03-02T10:36:57;10.00;99.90
736;DHT22;352;48.626;9.238;2023-03-02T10:41:53;10.00;94.40
736;DHT22;352;48.626;9.238;2023-03-02T10:44:24;10.20;94.60
736;DHT22;352;48.626;9.238;2023-03-02T10:49:26;10.60;94.00
736;DHT22;352;48.626;9.238;2023-03-02T10:52:03;10.90;99.90
736;DHT22;352;48.626;9.238;2023-03-02T10:54:31;10.80;93.70
736;DHT22;352;48.626;9.238;2023-03-02T10:57:00;10.80;93.30
736;DHT22;352;48.626;9.238;2023-03-02T10:59:37;11.40;99.90
736;DHT22;352;48.626;9.238;2023-03-02T11:02:16;10.40;99.90
736;DHT22;352;48.626;9.238;2023-03-02T11:07:16;10.60;99.90
736;DHT22;352;48.626;9.238;2023-03-02T11:09:43;10.50;99.90
736;DHT22;352;48.626;9.238;2023-03-02T11:17:38;11.40;96.50
736;DHT22;352;48.626;9.238;2023-03-02T11:20:13;12.10;99.90
736;DHT22;352;48.626;9.238;2023-03-02T11:22:46;13.10;99.70
736;DHT22;352;48.626;9.238;2023-03-02T11:25:22;13.00;86.00
736;DHT22;352;48.626;9.238;2023-03-02T11:27:55;14.00;84.20
736;DHT22;352;48.626;9.238;2023-03-02T11:30:25;13.60;84.20
736;DHT22;352;48.626;9.238;2023-03-02T11:32:58;13.20;85.20
736;DHT22;352;48.626;9.238;2023-03-02T11:35:30;13.50;99.90
736;DHT22;352;48.626;9.238;2023-03-02T11:38:03;14.00;86.10
736;DHT22;352;48.626;9.238;2023-03-02T11:40:41;14.00;88.10
736;DHT22;352;48.626;9.238;2023-03-02T11:43:11;13.60;85.10
736;DHT22;352;48.626;9.238;2023-03-02T11:45:42;13.00;99.90
736;DHT22;352;48.626;9.238;2023-03-02T11:48:17;12.60;86.70
736;DHT22;352;48.626;9.238;2023-03-02T11:50:53;12.30;87.20
736;DHT22;352;48.626;9.238;2023-03-02T11:53:24;12.20;99.90
736;DHT22;352;48.626;9.238;2023-03-02T11:55:54;12.10;91.10
736;DHT22;352;48.626;9.238;2023-03-02T11:58:23;11.20;98.70
736;DHT22;352;48.626;9.238;2023-03-02T12:00:51;11.30;99.90
736;DHT22;352;48.626;9.238;2023-03-02T12:03:35;11.40;99.80
736;DHT22;352;48.626;9.238;2023-03-02T12:06:04;11.50;90.00
736;DHT22;352;48.626;9.238;2023-03-02T12:08:36;11.60;90.80
736;DHT22;352;48.626;9.238;2023-03-02T12:11:07;11.60;94.70
736;DHT22;352;48.626;9.238;2023-03-02T12:13:35;11.90;90.70
736;DHT22;352;48.626;9.238;2023-03-02T12:16:03;12.10;90.80
736;DHT22;352;48.626;9.238;2023-03-02T12:18:44;12.20;90.50
736;DHT22;352;48.626;9.238;2023-03-02T12:21:14;11.90;99.90
736;DHT22;352;48.626;9.238;2023-03-02T12:23:56;12.40;90.30
736;DHT22;352;48.626;9.238;2023-03-02T12:26:28;11.30;88.80
736;DHT22;352;48.626;9.238;2023-03-02T12:28:59;12.10;89.50
736;DHT22;352;48.626;9.238;2023-03-02T12:31:38;11.90;90.00
736;DHT22;352;48.626;9.238;2023-03-02T12:34:20;11.40;90.30
736;DHT22;352;48.626;9.238;2023-03-02T12:36:52;11.20;90.90
736;DHT22;352;48.626;9.238;2023-03-02T12:39:28;11.10;91.50
736;DHT22;352;48.626;9.238;2023-03-02T12:42:26;11.00;91.70
736;DHT22;352;48.626;9.238;2023-03-02T12:44:58;11.10;91.50
736;DHT22;352;48.626;9.238;2023-03-02T12:49:57;10.90;91.90
736;DHT22;352;48.626;9.238;2023-03-02T12:52:28;10.80;92.30
736;DHT22;352;48.626;9.238;2023-03-02T12:55:01;11.00;92.20
736;DHT22;352;48.626;9.238;2023-03-02T12:57:29;10.90;92.10
736;DHT22;352;48.626;9.238;2023-03-02T12:59:57;10.60;99.90
736;DHT22;352;48.626;9.238;2023-03-02T13:02:26;10.80;92.00
736;DHT22;352;48.626;9.238;2023-03-02T13:04:55;10.70;92.10
736;DHT22;352;48.626;9.238;2023-03-02T13:07:25;10.70;92.10
736;DHT22;352;48.626;9.238;2023-03-02T13:09:53;10.70;92.80
736;DHT22;352;48.626;9.238;2023-03-02T13:12:22;10.80;92.50
736;DHT22;352;48.626;9.238;2023-03-02T13:14:51;10.90;92.40
736;DHT22;352;48.626;9.238;2023-03-02T13:17:24;10.80;92.20
736;DHT22;352;48.626;9.238;2023-03-02T13:24:54;10.70;93.20
736;DHT22;352;48.626;9.238;2023-03-02T13:27:24;10.70;93.30
736;DHT22;352;48.626;9.238;2023-03-02T13:29:51;10.80;93.20
736;DHT22;352;48.626;9.238;2023-03-02T13:32:22;10.80;92.80
736;DHT22;352;48.626;9.238;2023-03-02T13:34:51;10.90;93.10
736;DHT22;352;48.626;9.238;2023-03-02T13:37:28;11.00;93.10
736;DHT22;352;48.626;9.238;2023-03-02T13:39:58;11.00;93.00
736;DHT22;352;48.626;9.238;2023-03-02T13:42:33;11.00;92.00
736;DHT22;352;48.626;9.238;2023-03-02T13:45:20;11.00;92.30
736;DHT22;352;48.626;9.238;2023-03-02T13:50:17;11.20;92.50
736;DHT22;352;48.626;9.238;2023-03-02T13:55:15;11.20;91.40
736;DHT22;352;48.626;9.238;2023-03-02T13:57:44;11.00;91.40
736;DHT22;352;48.626;9.238;2023-03-02T14:00:13;10.90;91.40
736;DHT22;352;48.626;9.238;2023-03-02T14:05:15;10.70;91.90
736;DHT22;352;48.626;9.238;2023-03-02T14:15:11;10.70;92.00
736;DHT22;352;48.626;9.238;2023-03-02T14:20:11;10.80;92.40
736;DHT22;352;48.626;9.238;2023-03-02T14:25:06;10.60;99.90
736;DHT22;352;48.626;9.238;2023-03-02T14:32:28;10.90;92.60
736;DHT22;352;48.626;9.238;2023-03-02T14:37:25;11.00;92.80
736;DHT22;352;48.626;9.238;2023-03-02T14:42:22;10.90;92.40
736;DHT22;352;48.626;9.238;2023-03-02T14:44:50;11.00;92.40
736;DHT22;352;48.626;9.238;2023-03-02T14:49:47;10.90;92.40
736;DHT22;352;48.626;9.238;2023-03-02T14:52:18;10.90;92.70
736;DHT22;352;48.626;9.238;2023-03-02T14:54:48;10.80;93.00
736;DHT22;352;48.626;9.238;2023-03-02T14:57:18;10.80;93.30
736;DHT22;352;48.626;9.238;2023-03-02T15:07:12;10.60;93.10
736;DHT22;352;48.626;9.238;2023-03-02T15:17:03;10.60;93.70
736;DHT22;352;48.626;9.238;2023-03-02T15:24:25;10.50;93.80
736;DHT22;352;48.626;9.238;2023-03-02T15:26:52;10.50;93.90
736;DHT22;352;48.626;9.238;2023-03-02T15:39:11;10.20;93.30
736;DHT22;352;48.626;9.238;2023-03-02T15:41:39;10.10;93.60
736;DHT22;352;48.626;9.238;2023-03-02T15:58:50;9.70;95.40
736;DHT22;352;48.626;9.238;2023-03-02T16:16:04;9.30;95.80
736;DHT22;352;48.626;9.238;2023-03-02T16:33:17;9.00;97.60
736;DHT22;352;48.626;9.238;2023-03-02T16:40:38;8.60;96.70
736;DHT22;352;48.626;9.238;2023-03-02T16:50:30;8.30;97.20
736;DHT22;352;48.626;9.238;2023-03-02T16:55:25;8.20;99.90
736;DHT22;352;48.626;9.238;2023-03-02T17:00:20;8.10;97.80
736;DHT22;352;48.626;9.238;2023-03-02T17:05:16;7.90;98.10
736;DHT22;352;48.626;9.238;2023-03-02T17:07:44;7.90;98.30
736;DHT22;352;48.626;9.238;2023-03-02T17:10:13;7.80;99.90
736;DHT22;352;48.626;9.238;2023-03-02T17:15:08;7.60;98.60
736;DHT22;352;48.626;9.238;2023-03-02T17:20:04;7.60;98.70
736;DHT22;352;48.626;9.238;2023-03-02T17:24:59;7.80;99.90
736;DHT22;352;48.626;9.238;2023-03-02T17:32:21;7.50;98.60
736;DHT22;352;48.626;9.238;2023-03-02T17:42:11;7.50;99.90
736;DHT22;352;48.626;9.238;2023-03-02T17:44:38;7.50;99.90
736;DHT22;352;48.626;9.238;2023-03-02T17:52:00;7.40;98.70
736;DHT22;352;48.626;9.238;2023-03-02T17:59:22;7.30;98.70
736;DHT22;352;48.626;9.238;2023-03-02T18:16:34;6.80;99.70
736;DHT22;352;48.626;9.238;2023-03-02T18:23:56;6.90;99.90
736;DHT22;352;48.626;9.238;2023-03-02T18:26:23;6.70;99.90
736;DHT22;352;48.626;9.238;2023-03-02T18:31:17;6.00;99.80
736;DHT22;352;48.626;9.238;2023-03-02T18:33:46;6.50;99.90
736;DHT22;352;48.626;9.238;2023-03-02T18:41:08;6.40;99.90
736;DHT22;352;48.626;9.238;2023-03-02T18:43:39;6.30;99.90
736;DHT22;352;48.626;9.238;2023-03-02T18:46:17;6.20;99.90
736;DHT22;352;48.626;9.238;2023-03-02T18:51:12;6.10;99.90
736;DHT22;352;48.626;9.238;2023-03-02T18:53:39;6.00;99.90
736;DHT22;352;48.626;9.238;2023-03-02T18:58:35;6.10;99.90
736;DHT22;352;48.626;9.238;2023-03-02T19:01:01;6.10;99.90
736;DHT22;352;48.626;9.238;2023-03-02T19:03:28;5.80;99.90
736;DHT22;352;48.626;9.238;2023-03-02T19:05:55;5.80;99.90
736;DHT22;352;48.626;9.238;2023-03-02T19:08:25;5.70;99.90
736;DHT22;352;48.626;9.238;2023-03-02T19:10:53;5.70;99.90
736;DHT22;352;48.626;9.238;2023-03-02T19:18:15;5.60;99.90
736;DHT22;352;48.626;9.238;2023-03-02T19:20:44;5.50;99.90
736;DHT22;352;48.626;9.238;2023-03-02T19:23:11;5.60;99.90
736;DHT22;352;48.626;9.238;2023-03-02T19:25:39;5.40;99.90
736;DHT22;352;48.626;9.238;2023-03-02T19:30:34;5.40;99.90
736;DHT22;352;48.626;9.238;2023-03-02T19:33:02;5.30;99.90
736;DHT22;352;48.626;9.238;2023-03-02T19:35:32;5.30;99.90
736;DHT22;352;48.626;9.238;2023-03-02T19:40:27;5.20;99.90
736;DHT22;352;48.626;9.238;2023-03-02T19:42:56;5.20;99.90
736;DHT22;352;48.626;9.238;2023-03-02T19:45:25;5.10;99.90
736;DHT22;352;48.626;9.238;2023-03-02T19:50:21;5.00;99.90
736;DHT22;352;48.626;9.238;2023-03-02T19:55:17;4.90;99.90
736;DHT22;352;48.626;9.238;2023-03-02T20:00:17;4.80;99.90
736;DHT22;352;48.626;9.238;2023-03-02T20:02:45;4.80;99.90
736;DHT22;352;48.626;9.238;2023-03-02T20:05:12;4.70;99.90
736;DHT22;352;48.626;9.238;2023-03-02T20:07:40;5.00;99.90
736;DHT22;352;48.626;9.238;2023-03-02T20:10:07;4.70;99.90
736;DHT22;352;48.626;9.238;2023-03-02T20:12:35;4.50;99.90
736;DHT22;352;48.626;9.238;2023-03-02T20:17:30;4.50;99.90
736;DHT22;352;48.626;9.238;2023-03-02T20:29:47;4.40;99.90
736;DHT22;352;48.626;9.238;2023-03-02T20:34:42;4.40;99.90
736;DHT22;352;48.626;9.238;2023-03-02T20:37:11;4.40;99.90
736;DHT22;352;48.626;9.238;2023-03-02T20:39:41;4.40;99.90
736;DHT22;352;48.626;9.238;2023-03-02T20:42:08;4.30;99.90
736;DHT22;352;48.626;9.238;2023-03-02T20:44:35;4.50;99.90
736;DHT22;352;48.626;9.238;2023-03-02T20:47:05;4.30;99.90
736;DHT22;352;48.626;9.238;2023-03-02T20:49:35;4.20;99.90
736;DHT22;352;48.626;9.238;2023-03-02T20:52:04;4.10;99.90
736;DHT22;352;48.626;9.238;2023-03-02T20:54:34;4.30;99.90
736;DHT22;352;48.626;9.238;2023-03-02T20:59:32;4.50;99.90
736;DHT22;352;48.626;9.238;2023-03-02T21:09:23;4.40;99.90
736;DHT22;352;48.626;9.238;2023-03-02T21:19:14;4.30;99.90
736;DHT22;352;48.626;9.238;2023-03-02T21:24:10;4.40;99.90
736;DHT22;352;48.626;9.238;2023-03-02T21:43:57;4.80;99.90
736;DHT22;352;48.626;9.238;2023-03-02T21:48:51;4.50;99.90
736;DHT22;352;48.626;9.238;2023-03-02T21:51:17;5.50;99.90
736;DHT22;352;48.626;9.238;2023-03-02T21:53:45;4.50;99.90
736;DHT22;352;48.626;9.238;2023-03-02T21:56:16;4.30;99.90
736;DHT22;352;48.626;9.238;2023-03-02T21:58:45;4.70;99.90
736;DHT22;352;48.626;9.238;2023-03-02T22:01:14;4.80;99.90
736;DHT22;352;48.626;9.238;2023-03-02T22:03:41;4.70;99.90
736;DHT22;352;48.626;9.238;2023-03-02T22:06:12;4.90;99.90
736;DHT22;352;48.626;9.238;2023-03-02T22:11:11;4.70;99.90
736;DHT22;352;48.626;9.238;2023-03-02T22:16:12;4.70;99.90
736;DHT22;352;48.626;9.238;2023-03-02T22:18:41;4.70;99.90
736;DHT22;352;48.626;9.238;2023-03-02T22:21:23;4.60;99.90
736;DHT22;352;48.626;9.238;2023-03-02T22:23:53;4.70;99.90
736;DHT22;352;48.626;9.238;2023-03-02T22:26:19;3.80;99.90
736;DHT22;352;48.626;9.238;2023-03-02T22:31:18;4.70;99.90
736;DHT22;352;48.626;9.238;2023-03-02T22:33:47;4.70;99.90
736;DHT22;352;48.626;9.238;2023-03-02T22:36:18;6.10;99.90
736;DHT22;352;48.626;9.238;2023-03-02T22:38:45;5.00;99.90
736;DHT22;352;48.626;9.238;2023-03-02T22:41:13;4.70;99.90
736;DHT22;352;48.626;9.238;2023-03-02T22:43:41;4.80;99.90
736;DHT22;352;48.626;9.238;2023-03-02T22:46:10;5.10;99.90
736;DHT22;352;48.626;9.238;2023-03-02T22:48:41;4.60;99.90
736;DHT22;352;48.626;9.238;2023-03-02T22:51:14;4.40;99.90
736;DHT22;352;48.626;9.238;2023-03-02T22:53:46;4.40;99.90
736;DHT22;352;48.626;9.238;2023-03-02T22:56:26;4.70;99.90
736;DHT22;352;48.626;9.238;2023-03-02T22:58:54;4.60;99.90
736;DHT22;352;48.626;9.238;2023-03-02T23:01:23;4.60;99.90
736;DHT22;352;48.626;9.238;2023-03-02T23:03:51;4.70;99.90
736;DHT22;352;48.626;9.238;2023-03-02T23:06:24;4.60;99.90
736;DHT22;352;48.626;9.238;2023-03-02T23:08:53;5.20;99.90
736;DHT22;352;48.626;9.238;2023-03-02T23:11:21;4.60;99.90
736;DHT22;352;48.626;9.238;2023-03-02T23:13:49;4.60;99.90
736;DHT22;352;48.626;9.238;2023-03-02T23:16:18;4.70;99.90
736;DHT22;352;48.626;9.238;2023-03-02T23:18:46;4.50;99.90
736;DHT22;352;48.626;9.238;2023-03-02T23:21:18;3.70;99.90
736;DHT22;352;48.626;9.238;2023-03-02T23:23:47;4.70;99.90
736;DHT22;352;48.626;9.238;2023-03-02T23:26:14;5.10;99.90
736;DHT22;352;48.626;9.238;2023-03-02T23:28:44;3.50;99.90
736;DHT22;352;48.626;9.238;2023-03-02T23:36:06;4.70;99.90
736;DHT22;352;48.626;9.238;2023-03-02T23:41:01;4.80;99.90
736;DHT22;352;48.626;9.238;2023-03-02T23:43:28;4.80;99.90
736;DHT22;352;48.626;9.238;2023-03-02T23:48:22;5.00;99.90
736;DHT22;352;48.626;9.238;2023-03-02T23:50:49;4.80;99.90
736;DHT22;352;48.626;9.238;2023-03-02T23:53:16;5.60;99.90
736;DHT22;352;48.626;9.238;2023-03-02T23:55:46;4.80;99.90
736;DHT22;352;48.626;9.238;2023-03-02T23:58:15;4.90;99.90
